sensor_id;sensor_type;location;lat;lon;timestamp;P1;durP1;ratioP1;P2;durP2;ratioP2
43710;SDS011;29309;42.682;23.372;2022-11-15T00:01:33;129.18;;;60.70;;
43710;SDS011;29309;42.682;23.372;2022-11-15T00:03:59;120.88;;;57.75;;
43710;SDS011;29309;42.682;23.372;2022-11-15T00:06:24;123.65;;;59.20;;
43710;SDS011;29309;42.682;23.372;2022-11-15T00:08:49;136.18;;;58.80;;
43710;SDS011;29309;42.682;23.372;2022-11-15T00:11:15;122.07;;;56.78;;
43710;SDS011;29309;42.682;23.372;2022-11-15T00:13:40;126.35;;;54.58;;
43710;SDS011;29309;42.682;23.372;2022-11-15T00:16:06;115.82;;;50.50;;
43710;SDS011;29309;42.682;23.372;2022-11-15T00:18:31;125.85;;;56.22;;
43710;SDS011;29309;42.682;23.372;2022-11-15T00:21:02;135.93;;;61.70;;
43710;SDS011;29309;42.682;23.372;2022-11-15T00:23:30;104.45;;;49.17;;
43710;SDS011;29309;42.682;23.372;2022-11-15T00:25:56;103.45;;;48.15;;
43710;SDS011;29309;42.682;23.372;2022-11-15T00:28:22;108.18;;;46.40;;
43710;SDS011;29309;42.682;23.372;2022-11-15T00:30:48;104.10;;;45.05;;
43710;SDS011;29309;42.682;23.372;2022-11-15T00:33:13;103.38;;;46.97;;
43710;SDS011;29309;42.682;23.372;2022-11-15T00:35:39;99.82;;;47.22;;
43710;SDS011;29309;42.682;23.372;2022-11-15T00:38:04;108.20;;;44.33;;
43710;SDS011;29309;42.682;23.372;2022-11-15T00:40:30;107.97;;;49.47;;
43710;SDS011;29309;42.682;23.372;2022-11-15T00:42:55;104.43;;;45.33;;
43710;SDS011;29309;42.682;23.372;2022-11-15T00:45:21;91.63;;;44.50;;
43710;SDS011;29309;42.682;23.372;2022-11-15T00:47:47;95.43;;;45.17;;
43710;SDS011;29309;42.682;23.372;2022-11-15T00:50:12;101.18;;;45.50;;
43710;SDS011;29309;42.682;23.372;2022-11-15T00:52:38;91.20;;;43.58;;
43710;SDS011;29309;42.682;23.372;2022-11-15T00:55:03;86.95;;;41.40;;
43710;SDS011;29309;42.682;23.372;2022-11-15T00:57:29;98.75;;;41.38;;
43710;SDS011;29309;42.682;23.372;2022-11-15T00:59:55;91.80;;;39.90;;
43710;SDS011;29309;42.682;23.372;2022-11-15T01:02:20;84.90;;;37.65;;
43710;SDS011;29309;42.682;23.372;2022-11-15T01:04:46;85.70;;;40.60;;
43710;SDS011;29309;42.682;23.372;2022-11-15T01:07:11;79.78;;;36.83;;
43710;SDS011;29309;42.682;23.372;2022-11-15T01:09:37;89.85;;;37.70;;
43710;SDS011;29309;42.682;23.372;2022-11-15T01:12:02;87.68;;;37.97;;
43710;SDS011;29309;42.682;23.372;2022-11-15T01:14:28;83.70;;;36.53;;
43710;SDS011;29309;42.682;23.372;2022-11-15T01:16:53;89.88;;;39.33;;
43710;SDS011;29309;42.682;23.372;2022-11-15T01:19:19;82.22;;;42.22;;
43710;SDS011;29309;42.682;23.372;2022-11-15T01:21:44;89.07;;;38.60;;
43710;SDS011;29309;42.682;23.372;2022-11-15T01:24:13;78.22;;;36.90;;
43710;SDS011;29309;42.682;23.372;2022-11-15T01:26:38;80.35;;;35.92;;
43710;SDS011;29309;42.682;23.372;2022-11-15T01:29:04;94.15;;;40.58;;
43710;SDS011;29309;42.682;23.372;2022-11-15T01:31:29;92.72;;;39.13;;
43710;SDS011;29309;42.682;23.372;2022-11-15T01:33:55;88.72;;;40.15;;
43710;SDS011;29309;42.682;23.372;2022-11-15T01:36:20;94.07;;;41.85;;
43710;SDS011;29309;42.682;23.372;2022-11-15T01:38:47;106.03;;;49.50;;
43710;SDS011;29309;42.682;23.372;2022-11-15T01:41:25;101.18;;;48.40;;
43710;SDS011;29309;42.682;23.372;2022-11-15T01:43:53;99.00;;;46.50;;
43710;SDS011;29309;42.682;23.372;2022-11-15T01:48:46;119.07;;;51.40;;
43710;SDS011;29309;42.682;23.372;2022-11-15T01:51:13;137.02;;;59.75;;
43710;SDS011;29309;42.682;23.372;2022-11-15T01:53:41;115.50;;;52.00;;
43710;SDS011;29309;42.682;23.372;2022-11-15T01:56:11;109.82;;;49.38;;
43710;SDS011;29309;42.682;23.372;2022-11-15T01:58:41;130.30;;;53.67;;
43710;SDS011;29309;42.682;23.372;2022-11-15T02:01:08;133.63;;;57.08;;
43710;SDS011;29309;42.682;23.372;2022-11-15T02:03:36;132.80;;;60.83;;
43710;SDS011;29309;42.682;23.372;2022-11-15T02:06:06;145.73;;;64.32;;
43710;SDS011;29309;42.682;23.372;2022-11-15T02:08:33;160.80;;;72.18;;
43710;SDS011;29309;42.682;23.372;2022-11-15T02:10:58;192.02;;;78.60;;
43710;SDS011;29309;42.682;23.372;2022-11-15T02:13:24;165.38;;;70.45;;
43710;SDS011;29309;42.682;23.372;2022-11-15T02:16:09;161.00;;;70.75;;
43710;SDS011;29309;42.682;23.372;2022-11-15T02:18:46;165.65;;;72.07;;
43710;SDS011;29309;42.682;23.372;2022-11-15T02:21:19;162.80;;;72.68;;
43710;SDS011;29309;42.682;23.372;2022-11-15T02:27:08;165.63;;;73.15;;
43710;SDS011;29309;42.682;23.372;2022-11-15T02:32:50;169.38;;;74.43;;
43710;SDS011;29309;42.682;23.372;2022-11-15T02:35:30;161.63;;;71.35;;
43710;SDS011;29309;42.682;23.372;2022-11-15T02:40:45;154.85;;;70.15;;
43710;SDS011;29309;42.682;23.372;2022-11-15T02:43:28;156.93;;;72.75;;
43710;SDS011;29309;42.682;23.372;2022-11-15T02:46:28;151.68;;;63.33;;
43710;SDS011;29309;42.682;23.372;2022-11-15T02:49:22;148.55;;;59.03;;
43710;SDS011;29309;42.682;23.372;2022-11-15T02:51:51;138.95;;;56.83;;
43710;SDS011;29309;42.682;23.372;2022-11-15T02:54:20;135.55;;;54.80;;
43710;SDS011;29309;42.682;23.372;2022-11-15T02:56:48;130.50;;;52.90;;
43710;SDS011;29309;42.682;23.372;2022-11-15T02:59:19;135.50;;;52.60;;
43710;SDS011;29309;42.682;23.372;2022-11-15T03:02:05;127.53;;;50.70;;
43710;SDS011;29309;42.682;23.372;2022-11-15T03:04:42;134.05;;;48.47;;
43710;SDS011;29309;42.682;23.372;2022-11-15T03:09:50;116.30;;;45.88;;
43710;SDS011;29309;42.682;23.372;2022-11-15T03:15:11;124.68;;;44.28;;
43710;SDS011;29309;42.682;23.372;2022-11-15T03:18:00;120.32;;;45.70;;
43710;SDS011;29309;42.682;23.372;2022-11-15T03:20:29;120.93;;;45.55;;
43710;SDS011;29309;42.682;23.372;2022-11-15T03:22:56;127.95;;;48.47;;
43710;SDS011;29309;42.682;23.372;2022-11-15T03:25:28;120.05;;;45.08;;
43710;SDS011;29309;42.682;23.372;2022-11-15T03:27:57;118.70;;;44.90;;
43710;SDS011;29309;42.682;23.372;2022-11-15T03:30:27;123.20;;;43.65;;
43710;SDS011;29309;42.682;23.372;2022-11-15T03:32:56;99.38;;;40.05;;
43710;SDS011;29309;42.682;23.372;2022-11-15T03:35:30;88.78;;;38.05;;
43710;SDS011;29309;42.682;23.372;2022-11-15T03:40:45;91.30;;;37.40;;
43710;SDS011;29309;42.682;23.372;2022-11-15T03:43:36;89.47;;;36.15;;
43710;SDS011;29309;42.682;23.372;2022-11-15T03:49:22;82.82;;;33.78;;
43710;SDS011;29309;42.682;23.372;2022-11-15T03:51:34;78.22;;;32.50;;
43710;SDS011;29309;42.682;23.372;2022-11-15T03:54:02;70.57;;;32.30;;
43710;SDS011;29309;42.682;23.372;2022-11-15T03:56:28;78.80;;;33.30;;
43710;SDS011;29309;42.682;23.372;2022-11-15T03:58:54;75.32;;;33.40;;
43710;SDS011;29309;42.682;23.372;2022-11-15T04:01:19;76.85;;;33.70;;
43710;SDS011;29309;42.682;23.372;2022-11-15T04:03:45;75.50;;;33.55;;
43710;SDS011;29309;42.682;23.372;2022-11-15T04:06:10;72.72;;;32.72;;
43710;SDS011;29309;42.682;23.372;2022-11-15T04:08:36;67.13;;;30.00;;
43710;SDS011;29309;42.682;23.372;2022-11-15T04:11:01;68.15;;;29.48;;
43710;SDS011;29309;42.682;23.372;2022-11-15T04:13:27;65.88;;;32.25;;
43710;SDS011;29309;42.682;23.372;2022-11-15T04:15:52;65.95;;;31.05;;
43710;SDS011;29309;42.682;23.372;2022-11-15T04:18:18;61.88;;;27.13;;
43710;SDS011;29309;42.682;23.372;2022-11-15T04:20:43;54.22;;;26.80;;
43710;SDS011;29309;42.682;23.372;2022-11-15T04:23:27;58.38;;;27.52;;
43710;SDS011;29309;42.682;23.372;2022-11-15T04:26:12;59.58;;;29.58;;
43710;SDS011;29309;42.682;23.372;2022-11-15T04:28:41;68.22;;;31.25;;
43710;SDS011;29309;42.682;23.372;2022-11-15T04:31:25;68.75;;;30.15;;
43710;SDS011;29309;42.682;23.372;2022-11-15T04:33:51;66.75;;;31.60;;
43710;SDS011;29309;42.682;23.372;2022-11-15T04:36:17;65.57;;;33.03;;
43710;SDS011;29309;42.682;23.372;2022-11-15T04:39:01;56.95;;;29.63;;
43710;SDS011;29309;42.682;23.372;2022-11-15T04:41:26;57.80;;;30.95;;
43710;SDS011;29309;42.682;23.372;2022-11-15T04:43:52;52.55;;;27.42;;
43710;SDS011;29309;42.682;23.372;2022-11-15T04:46:17;60.03;;;29.75;;
43710;SDS011;29309;42.682;23.372;2022-11-15T04:48:43;61.47;;;29.70;;
43710;SDS011;29309;42.682;23.372;2022-11-15T04:51:08;61.88;;;29.27;;
43710;SDS011;29309;42.682;23.372;2022-11-15T04:53:33;64.53;;;29.27;;
43710;SDS011;29309;42.682;23.372;2022-11-15T04:55:59;62.92;;;29.88;;
43710;SDS011;29309;42.682;23.372;2022-11-15T04:58:24;66.53;;;29.63;;
43710;SDS011;29309;42.682;23.372;2022-11-15T05:00:50;72.07;;;31.95;;
43710;SDS011;29309;42.682;23.372;2022-11-15T05:03:15;66.90;;;30.08;;
43710;SDS011;29309;42.682;23.372;2022-11-15T05:05:59;63.50;;;27.23;;
43710;SDS011;29309;42.682;23.372;2022-11-15T05:08:25;63.83;;;28.70;;
43710;SDS011;29309;42.682;23.372;2022-11-15T05:10:50;67.07;;;27.73;;
43710;SDS011;29309;42.682;23.372;2022-11-15T05:13:16;66.75;;;29.40;;
43710;SDS011;29309;42.682;23.372;2022-11-15T05:15:42;63.97;;;26.60;;
43710;SDS011;29309;42.682;23.372;2022-11-15T05:18:08;68.80;;;26.70;;
43710;SDS011;29309;42.682;23.372;2022-11-15T05:20:33;63.70;;;24.52;;
43710;SDS011;29309;42.682;23.372;2022-11-15T05:22:58;61.42;;;22.85;;
43710;SDS011;29309;42.682;23.372;2022-11-15T05:25:24;85.78;;;22.60;;
43710;SDS011;29309;42.682;23.372;2022-11-15T05:27:50;53.45;;;20.73;;
43710;SDS011;29309;42.682;23.372;2022-11-15T05:30:15;48.53;;;18.02;;
43710;SDS011;29309;42.682;23.372;2022-11-15T05:32:42;47.15;;;19.80;;
43710;SDS011;29309;42.682;23.372;2022-11-15T05:35:08;70.85;;;21.88;;
43710;SDS011;29309;42.682;23.372;2022-11-15T05:37:43;75.90;;;20.43;;
43710;SDS011;29309;42.682;23.372;2022-11-15T05:40:09;59.42;;;19.75;;
43710;SDS011;29309;42.682;23.372;2022-11-15T05:42:35;61.75;;;22.58;;
43710;SDS011;29309;42.682;23.372;2022-11-15T05:45:01;76.50;;;27.50;;
43710;SDS011;29309;42.682;23.372;2022-11-15T05:47:29;71.30;;;26.10;;
43710;SDS011;29309;42.682;23.372;2022-11-15T05:49:55;67.40;;;24.75;;
43710;SDS011;29309;42.682;23.372;2022-11-15T05:52:23;73.90;;;24.25;;
43710;SDS011;29309;42.682;23.372;2022-11-15T05:54:53;59.10;;;20.80;;
43710;SDS011;29309;42.682;23.372;2022-11-15T05:57:20;62.15;;;21.50;;
43710;SDS011;29309;42.682;23.372;2022-11-15T05:59:46;49.60;;;20.58;;
43710;SDS011;29309;42.682;23.372;2022-11-15T06:02:11;56.45;;;21.40;;
43710;SDS011;29309;42.682;23.372;2022-11-15T06:04:37;60.22;;;25.67;;
43710;SDS011;29309;42.682;23.372;2022-11-15T06:07:03;75.93;;;28.60;;
43710;SDS011;29309;42.682;23.372;2022-11-15T06:09:28;86.07;;;29.45;;
43710;SDS011;29309;42.682;23.372;2022-11-15T06:11:53;45.95;;;20.13;;
43710;SDS011;29309;42.682;23.372;2022-11-15T06:14:19;52.58;;;19.70;;
43710;SDS011;29309;42.682;23.372;2022-11-15T06:16:44;52.90;;;18.42;;
43710;SDS011;29309;42.682;23.372;2022-11-15T06:19:10;45.83;;;17.65;;
43710;SDS011;29309;42.682;23.372;2022-11-15T06:21:35;35.88;;;14.60;;
43710;SDS011;29309;42.682;23.372;2022-11-15T06:24:01;44.38;;;16.52;;
43710;SDS011;29309;42.682;23.372;2022-11-15T06:26:26;61.92;;;16.65;;
43710;SDS011;29309;42.682;23.372;2022-11-15T06:28:52;53.80;;;16.42;;
43710;SDS011;29309;42.682;23.372;2022-11-15T06:31:17;46.30;;;15.73;;
43710;SDS011;29309;42.682;23.372;2022-11-15T06:33:43;40.83;;;15.63;;
43710;SDS011;29309;42.682;23.372;2022-11-15T06:36:09;46.63;;;15.60;;
43710;SDS011;29309;42.682;23.372;2022-11-15T06:38:38;36.83;;;16.15;;
43710;SDS011;29309;42.682;23.372;2022-11-15T06:41:05;35.20;;;16.52;;
43710;SDS011;29309;42.682;23.372;2022-11-15T06:43:32;48.90;;;18.88;;
43710;SDS011;29309;42.682;23.372;2022-11-15T06:45:59;44.50;;;17.67;;
43710;SDS011;29309;42.682;23.372;2022-11-15T06:48:25;57.22;;;19.98;;
43710;SDS011;29309;42.682;23.372;2022-11-15T06:50:52;48.60;;;19.17;;
43710;SDS011;29309;42.682;23.372;2022-11-15T06:53:18;48.95;;;19.80;;
43710;SDS011;29309;42.682;23.372;2022-11-15T06:55:43;58.50;;;21.98;;
43710;SDS011;29309;42.682;23.372;2022-11-15T06:58:09;53.65;;;21.13;;
43710;SDS011;29309;42.682;23.372;2022-11-15T07:00:34;56.78;;;21.20;;
43710;SDS011;29309;42.682;23.372;2022-11-15T07:03:00;55.28;;;21.20;;
43710;SDS011;29309;42.682;23.372;2022-11-15T07:05:26;54.00;;;19.92;;
43710;SDS011;29309;42.682;23.372;2022-11-15T07:07:52;57.92;;;20.02;;
43710;SDS011;29309;42.682;23.372;2022-11-15T07:10:19;43.80;;;19.85;;
43710;SDS011;29309;42.682;23.372;2022-11-15T07:12:48;38.42;;;15.98;;
43710;SDS011;29309;42.682;23.372;2022-11-15T07:15:14;53.50;;;17.35;;
43710;SDS011;29309;42.682;23.372;2022-11-15T07:17:40;49.88;;;18.90;;
43710;SDS011;29309;42.682;23.372;2022-11-15T07:20:06;46.60;;;17.98;;
43710;SDS011;29309;42.682;23.372;2022-11-15T07:22:32;56.47;;;21.38;;
43710;SDS011;29309;42.682;23.372;2022-11-15T07:24:58;51.80;;;19.00;;
43710;SDS011;29309;42.682;23.372;2022-11-15T07:27:23;50.22;;;18.73;;
43710;SDS011;29309;42.682;23.372;2022-11-15T07:29:48;43.13;;;19.23;;
43710;SDS011;29309;42.682;23.372;2022-11-15T07:32:14;45.63;;;20.25;;
43710;SDS011;29309;42.682;23.372;2022-11-15T07:34:40;52.97;;;20.48;;
43710;SDS011;29309;42.682;23.372;2022-11-15T07:37:05;56.38;;;22.65;;
43710;SDS011;29309;42.682;23.372;2022-11-15T07:39:31;61.30;;;21.42;;
43710;SDS011;29309;42.682;23.372;2022-11-15T07:41:56;50.38;;;20.67;;
43710;SDS011;29309;42.682;23.372;2022-11-15T07:44:41;52.97;;;20.20;;
43710;SDS011;29309;42.682;23.372;2022-11-15T07:47:07;58.80;;;22.02;;
43710;SDS011;29309;42.682;23.372;2022-11-15T07:49:32;56.15;;;21.67;;
43710;SDS011;29309;42.682;23.372;2022-11-15T07:51:58;59.50;;;23.02;;
43710;SDS011;29309;42.682;23.372;2022-11-15T07:54:23;55.42;;;22.13;;
43710;SDS011;29309;42.682;23.372;2022-11-15T07:56:48;55.05;;;22.33;;
43710;SDS011;29309;42.682;23.372;2022-11-15T07:59:14;49.95;;;21.65;;
43710;SDS011;29309;42.682;23.372;2022-11-15T08:01:39;54.90;;;20.67;;
43710;SDS011;29309;42.682;23.372;2022-11-15T08:04:05;59.63;;;23.60;;
43710;SDS011;29309;42.682;23.372;2022-11-15T08:06:30;55.50;;;23.13;;
43710;SDS011;29309;42.682;23.372;2022-11-15T08:08:56;62.53;;;23.17;;
43710;SDS011;29309;42.682;23.372;2022-11-15T08:11:21;64.30;;;23.13;;
43710;SDS011;29309;42.682;23.372;2022-11-15T08:13:46;58.55;;;23.83;;
43710;SDS011;29309;42.682;23.372;2022-11-15T08:16:12;63.03;;;24.40;;
43710;SDS011;29309;42.682;23.372;2022-11-15T08:18:37;62.20;;;25.45;;
43710;SDS011;29309;42.682;23.372;2022-11-15T08:21:03;57.28;;;24.42;;
43710;SDS011;29309;42.682;23.372;2022-11-15T08:23:29;63.22;;;24.80;;
43710;SDS011;29309;42.682;23.372;2022-11-15T08:26:04;54.92;;;23.90;;
43710;SDS011;29309;42.682;23.372;2022-11-15T08:28:30;59.55;;;24.08;;
43710;SDS011;29309;42.682;23.372;2022-11-15T08:30:57;60.83;;;24.67;;
43710;SDS011;29309;42.682;23.372;2022-11-15T08:33:22;60.45;;;24.67;;
43710;SDS011;29309;42.682;23.372;2022-11-15T08:35:48;58.03;;;25.25;;
43710;SDS011;29309;42.682;23.372;2022-11-15T08:38:13;68.22;;;28.35;;
43710;SDS011;29309;42.682;23.372;2022-11-15T08:40:39;66.00;;;28.83;;
43710;SDS011;29309;42.682;23.372;2022-11-15T08:43:05;66.00;;;29.10;;
43710;SDS011;29309;42.682;23.372;2022-11-15T08:45:31;65.10;;;29.23;;
43710;SDS011;29309;42.682;23.372;2022-11-15T08:48:00;69.32;;;27.95;;
43710;SDS011;29309;42.682;23.372;2022-11-15T08:50:26;68.70;;;28.40;;
43710;SDS011;29309;42.682;23.372;2022-11-15T08:52:52;61.28;;;28.38;;
43710;SDS011;29309;42.682;23.372;2022-11-15T08:55:20;64.95;;;28.83;;
43710;SDS011;29309;42.682;23.372;2022-11-15T08:57:45;75.15;;;30.17;;
43710;SDS011;29309;42.682;23.372;2022-11-15T09:00:11;84.85;;;30.65;;
43710;SDS011;29309;42.682;23.372;2022-11-15T09:02:38;66.90;;;29.02;;
43710;SDS011;29309;42.682;23.372;2022-11-15T09:05:05;75.60;;;32.60;;
43710;SDS011;29309;42.682;23.372;2022-11-15T09:07:31;82.97;;;33.88;;
43710;SDS011;29309;42.682;23.372;2022-11-15T09:09:56;73.07;;;30.85;;
43710;SDS011;29309;42.682;23.372;2022-11-15T09:12:22;77.20;;;33.08;;
43710;SDS011;29309;42.682;23.372;2022-11-15T09:14:48;72.20;;;30.15;;
43710;SDS011;29309;42.682;23.372;2022-11-15T09:17:14;83.10;;;31.85;;
43710;SDS011;29309;42.682;23.372;2022-11-15T09:19:39;83.00;;;33.83;;
43710;SDS011;29309;42.682;23.372;2022-11-15T09:22:06;79.60;;;34.55;;
43710;SDS011;29309;42.682;23.372;2022-11-15T09:24:33;86.22;;;34.45;;
43710;SDS011;29309;42.682;23.372;2022-11-15T09:26:58;87.95;;;35.30;;
43710;SDS011;29309;42.682;23.372;2022-11-15T09:29:24;85.55;;;36.25;;
43710;SDS011;29309;42.682;23.372;2022-11-15T09:31:51;80.47;;;33.92;;
43710;SDS011;29309;42.682;23.372;2022-11-15T09:34:17;93.22;;;34.25;;
43710;SDS011;29309;42.682;23.372;2022-11-15T09:36:43;81.45;;;35.35;;
43710;SDS011;29309;42.682;23.372;2022-11-15T09:39:08;85.20;;;35.30;;
43710;SDS011;29309;42.682;23.372;2022-11-15T09:41:48;81.82;;;34.28;;
43710;SDS011;29309;42.682;23.372;2022-11-15T09:47:40;79.57;;;33.20;;
43710;SDS011;29309;42.682;23.372;2022-11-15T09:50:41;84.63;;;36.65;;
43710;SDS011;29309;42.682;23.372;2022-11-15T09:53:12;79.93;;;36.45;;
43710;SDS011;29309;42.682;23.372;2022-11-15T09:55:44;94.22;;;37.67;;
43710;SDS011;29309;42.682;23.372;2022-11-15T09:58:22;86.22;;;36.58;;
43710;SDS011;29309;42.682;23.372;2022-11-15T10:01:02;84.53;;;34.65;;
43710;SDS011;29309;42.682;23.372;2022-11-15T10:03:49;83.43;;;35.58;;
43710;SDS011;29309;42.682;23.372;2022-11-15T10:06:25;88.72;;;36.33;;
43710;SDS011;29309;42.682;23.372;2022-11-15T10:09:00;72.40;;;33.97;;
43710;SDS011;29309;42.682;23.372;2022-11-15T10:11:35;83.80;;;35.42;;
43710;SDS011;29309;42.682;23.372;2022-11-15T10:14:09;85.97;;;37.45;;
43710;SDS011;29309;42.682;23.372;2022-11-15T10:19:43;82.65;;;35.50;;
43710;SDS011;29309;42.682;23.372;2022-11-15T10:27:33;77.95;;;35.25;;
43710;SDS011;29309;42.682;23.372;2022-11-15T10:30:00;69.63;;;31.38;;
43710;SDS011;29309;42.682;23.372;2022-11-15T10:32:25;76.65;;;35.42;;
43710;SDS011;29309;42.682;23.372;2022-11-15T10:34:51;66.55;;;31.95;;
43710;SDS011;29309;42.682;23.372;2022-11-15T10:37:27;74.95;;;34.35;;
43710;SDS011;29309;42.682;23.372;2022-11-15T10:40:17;90.13;;;36.40;;
43710;SDS011;29309;42.682;23.372;2022-11-15T10:42:44;85.05;;;33.85;;
43710;SDS011;29309;42.682;23.372;2022-11-15T10:45:22;80.03;;;36.95;;
43710;SDS011;29309;42.682;23.372;2022-11-15T10:47:53;70.75;;;33.45;;
43710;SDS011;29309;42.682;23.372;2022-11-15T10:50:42;73.50;;;33.38;;
43710;SDS011;29309;42.682;23.372;2022-11-15T10:53:23;77.90;;;35.47;;
43710;SDS011;29309;42.682;23.372;2022-11-15T10:55:55;70.25;;;33.53;;
43710;SDS011;29309;42.682;23.372;2022-11-15T10:58:40;78.68;;;35.08;;
43710;SDS011;29309;42.682;23.372;2022-11-15T11:03:39;71.05;;;32.67;;
43710;SDS011;29309;42.682;23.372;2022-11-15T11:06:08;77.40;;;35.03;;
43710;SDS011;29309;42.682;23.372;2022-11-15T11:08:38;84.00;;;33.67;;
43710;SDS011;29309;42.682;23.372;2022-11-15T11:11:05;71.32;;;31.88;;
43710;SDS011;29309;42.682;23.372;2022-11-15T11:13:39;76.35;;;33.22;;
43710;SDS011;29309;42.682;23.372;2022-11-15T11:21:14;70.35;;;31.58;;
43710;SDS011;29309;42.682;23.372;2022-11-15T11:23:52;65.97;;;28.85;;
43710;SDS011;29309;42.682;23.372;2022-11-15T11:29:02;66.40;;;30.58;;
43710;SDS011;29309;42.682;23.372;2022-11-15T11:31:47;60.92;;;28.17;;
43710;SDS011;29309;42.682;23.372;2022-11-15T11:34:40;65.38;;;30.65;;
43710;SDS011;29309;42.682;23.372;2022-11-15T11:50:50;65.20;;;31.67;;
43710;SDS011;29309;42.682;23.372;2022-11-15T11:53:25;65.20;;;31.67;;
43710;SDS011;29309;42.682;23.372;2022-11-15T11:55:58;55.88;;;30.55;;
43710;SDS011;29309;42.682;23.372;2022-11-15T11:58:36;58.33;;;29.58;;
43710;SDS011;29309;42.682;23.372;2022-11-15T12:03:53;51.78;;;28.92;;
43710;SDS011;29309;42.682;23.372;2022-11-15T12:09:06;52.78;;;28.83;;
43710;SDS011;29309;42.682;23.372;2022-11-15T12:14:28;56.88;;;29.73;;
43710;SDS011;29309;42.682;23.372;2022-11-15T12:16:59;47.95;;;28.85;;
43710;SDS011;29309;42.682;23.372;2022-11-15T12:19:29;51.70;;;29.75;;
43710;SDS011;29309;42.682;23.372;2022-11-15T12:24:46;57.13;;;32.75;;
43710;SDS011;29309;42.682;23.372;2022-11-15T12:27:31;62.65;;;34.00;;
43710;SDS011;29309;42.682;23.372;2022-11-15T12:30:04;54.17;;;30.98;;
43710;SDS011;29309;42.682;23.372;2022-11-15T12:32:36;61.78;;;31.13;;
43710;SDS011;29309;42.682;23.372;2022-11-15T12:35:05;64.22;;;32.00;;
43710;SDS011;29309;42.682;23.372;2022-11-15T12:37:50;65.15;;;29.48;;
43710;SDS011;29309;42.682;23.372;2022-11-15T12:43:03;65.25;;;30.92;;
43710;SDS011;29309;42.682;23.372;2022-11-15T12:45:39;65.60;;;32.13;;
43710;SDS011;29309;42.682;23.372;2022-11-15T13:11:55;69.85;;;32.70;;
43710;SDS011;29309;42.682;23.372;2022-11-15T13:19:55;75.68;;;36.58;;
43710;SDS011;29309;42.682;23.372;2022-11-15T13:22:26;76.63;;;39.08;;
43710;SDS011;29309;42.682;23.372;2022-11-15T13:25:15;78.85;;;38.10;;
43710;SDS011;29309;42.682;23.372;2022-11-15T13:27:50;78.10;;;37.22;;
43710;SDS011;29309;42.682;23.372;2022-11-15T13:30:21;77.07;;;38.20;;
43710;SDS011;29309;42.682;23.372;2022-11-15T13:32:48;83.13;;;39.88;;
43710;SDS011;29309;42.682;23.372;2022-11-15T13:35:25;81.07;;;38.92;;
43710;SDS011;29309;42.682;23.372;2022-11-15T13:37:53;82.45;;;40.30;;
43710;SDS011;29309;42.682;23.372;2022-11-15T13:40:27;93.97;;;41.58;;
43710;SDS011;29309;42.682;23.372;2022-11-15T13:42:57;90.53;;;41.47;;
43710;SDS011;29309;42.682;23.372;2022-11-15T13:45:23;83.38;;;41.45;;
43710;SDS011;29309;42.682;23.372;2022-11-15T13:47:56;87.00;;;43.30;;
43710;SDS011;29309;42.682;23.372;2022-11-15T13:50:33;86.28;;;41.33;;
43710;SDS011;29309;42.682;23.372;2022-11-15T13:53:01;82.82;;;40.33;;
43710;SDS011;29309;42.682;23.372;2022-11-15T13:55:29;79.05;;;39.03;;
43710;SDS011;29309;42.682;23.372;2022-11-15T13:57:58;81.60;;;38.72;;
43710;SDS011;29309;42.682;23.372;2022-11-15T14:03:07;90.30;;;38.55;;
43710;SDS011;29309;42.682;23.372;2022-11-15T14:06:09;88.15;;;39.65;;
43710;SDS011;29309;42.682;23.372;2022-11-15T14:08:37;82.82;;;41.38;;
43710;SDS011;29309;42.682;23.372;2022-11-15T14:11:17;85.72;;;40.97;;
43710;SDS011;29309;42.682;23.372;2022-11-15T14:16:44;78.82;;;36.88;;
43710;SDS011;29309;42.682;23.372;2022-11-15T14:19:32;81.13;;;35.65;;
43710;SDS011;29309;42.682;23.372;2022-11-15T14:24:35;86.88;;;41.38;;
43710;SDS011;29309;42.682;23.372;2022-11-15T14:29:48;77.53;;;37.15;;
43710;SDS011;29309;42.682;23.372;2022-11-15T14:35:18;81.90;;;35.85;;
43710;SDS011;29309;42.682;23.372;2022-11-15T14:37:46;75.00;;;33.88;;
43710;SDS011;29309;42.682;23.372;2022-11-15T14:40:13;64.03;;;33.22;;
43710;SDS011;29309;42.682;23.372;2022-11-15T14:42:44;67.88;;;31.73;;
43710;SDS011;29309;42.682;23.372;2022-11-15T14:45:15;63.17;;;31.70;;
43710;SDS011;29309;42.682;23.372;2022-11-15T14:47:43;66.68;;;32.05;;
43710;SDS011;29309;42.682;23.372;2022-11-15T14:52:38;66.57;;;33.28;;
43710;SDS011;29309;42.682;23.372;2022-11-15T14:55:10;70.75;;;34.30;;
43710;SDS011;29309;42.682;23.372;2022-11-15T14:57:48;73.68;;;36.55;;
43710;SDS011;29309;42.682;23.372;2022-11-15T15:00:14;73.18;;;37.10;;
43710;SDS011;29309;42.682;23.372;2022-11-15T15:02:41;86.60;;;38.80;;
43710;SDS011;29309;42.682;23.372;2022-11-15T15:07:48;144.68;;;72.78;;
43710;SDS011;29309;42.682;23.372;2022-11-15T15:10:14;95.05;;;46.53;;
43710;SDS011;29309;42.682;23.372;2022-11-15T15:12:41;85.95;;;42.00;;
43710;SDS011;29309;42.682;23.372;2022-11-15T15:15:16;88.38;;;42.38;;
43710;SDS011;29309;42.682;23.372;2022-11-15T15:17:48;91.07;;;41.33;;
43710;SDS011;29309;42.682;23.372;2022-11-15T15:20:14;94.47;;;39.55;;
43710;SDS011;29309;42.682;23.372;2022-11-15T15:22:39;80.47;;;37.40;;
43710;SDS011;29309;42.682;23.372;2022-11-15T15:25:18;91.30;;;40.42;;
43710;SDS011;29309;42.682;23.372;2022-11-15T15:27:48;81.93;;;37.83;;
43710;SDS011;29309;42.682;23.372;2022-11-15T15:30:14;82.05;;;40.42;;
43710;SDS011;29309;42.682;23.372;2022-11-15T15:32:40;91.38;;;39.17;;
43710;SDS011;29309;42.682;23.372;2022-11-15T15:35:05;93.03;;;43.10;;
43710;SDS011;29309;42.682;23.372;2022-11-15T15:37:31;83.03;;;41.60;;
43710;SDS011;29309;42.682;23.372;2022-11-15T15:39:58;85.60;;;38.47;;
43710;SDS011;29309;42.682;23.372;2022-11-15T15:42:23;86.57;;;39.95;;
43710;SDS011;29309;42.682;23.372;2022-11-15T15:44:49;83.53;;;40.75;;
43710;SDS011;29309;42.682;23.372;2022-11-15T15:47:17;84.45;;;42.33;;
43710;SDS011;29309;42.682;23.372;2022-11-15T15:49:44;82.10;;;40.15;;
43710;SDS011;29309;42.682;23.372;2022-11-15T15:52:10;92.80;;;41.95;;
43710;SDS011;29309;42.682;23.372;2022-11-15T15:54:36;107.18;;;46.10;;
43710;SDS011;29309;42.682;23.372;2022-11-15T15:57:02;105.05;;;49.58;;
43710;SDS011;29309;42.682;23.372;2022-11-15T15:59:28;124.18;;;62.33;;
43710;SDS011;29309;42.682;23.372;2022-11-15T16:01:53;156.50;;;79.53;;
43710;SDS011;29309;42.682;23.372;2022-11-15T16:04:19;143.02;;;76.40;;
43710;SDS011;29309;42.682;23.372;2022-11-15T16:06:44;175.02;;;83.97;;
43710;SDS011;29309;42.682;23.372;2022-11-15T16:09:14;173.80;;;87.15;;
43710;SDS011;29309;42.682;23.372;2022-11-15T16:11:41;201.63;;;95.07;;
43710;SDS011;29309;42.682;23.372;2022-11-15T16:14:07;179.95;;;88.45;;
43710;SDS011;29309;42.682;23.372;2022-11-15T16:16:33;182.38;;;87.75;;
43710;SDS011;29309;42.682;23.372;2022-11-15T16:18:59;190.13;;;86.70;;